Terminal Aerodrome Forecast
Issued by NWS

Home | Current Version | Previous Version | Text Only | Print | Product List | Glossary On
Versions: 1 2 3 4 5 6 7 8 9 10 11 12 13 14 15
000
FTUS43 KEAX 252000 AAA
TAFMKC
TAF AMD
KMKC 252031Z 2521/2618 18012G22KT P6SM SCT025 BKN035
     FM260100 18010KT P6SM VCTS SCT030CB BKN050
     FM260400 19008KT P6SM -TSRA BKN030CB
     FM260800 19008KT P6SM VCSH BKN050
     FM261200 19008KT P6SM BKN100=

USA.gov is the U.S. government's official web portal to all federal, state and local government web resources and services.